createdAt,value
2022-12-11T00:00:52.891Z,4.30
2022-12-11T00:03:20.812Z,4.40
2022-12-11T00:05:48.565Z,4.40
2022-12-11T00:08:16.400Z,4.50
2022-12-11T00:10:49.400Z,4.30
2022-12-11T00:13:18.543Z,4.20
2022-12-11T00:15:46.291Z,4.10
2022-12-11T00:18:14.660Z,4.10
2022-12-11T00:20:42.644Z,4.00
2022-12-11T00:23:10.785Z,3.80
2022-12-11T00:25:42.645Z,3.80
2022-12-11T00:28:10.488Z,3.60
2022-12-11T00:30:42.262Z,3.50
2022-12-11T00:33:10.159Z,3.50
2022-12-11T00:35:39.578Z,3.50
2022-12-11T00:38:07.733Z,3.40
2022-12-11T00:40:35.976Z,3.50
2022-12-11T00:43:03.950Z,3.50
2022-12-11T00:45:31.905Z,3.50
2022-12-11T00:48:01.152Z,3.50
2022-12-11T00:50:28.909Z,3.50
2022-12-11T00:52:56.726Z,3.50
2022-12-11T00:55:25.355Z,3.50
2022-12-11T00:57:56.257Z,3.60
2022-12-11T01:00:24.307Z,3.60
2022-12-11T01:02:52.546Z,3.70
2022-12-11T01:05:21.737Z,3.70
2022-12-11T01:07:49.590Z,3.80
2022-12-11T01:10:26.433Z,3.80
2022-12-11T01:12:56.162Z,3.80
2022-12-11T01:15:26.162Z,3.80
2022-12-11T01:17:54.202Z,3.80
2022-12-11T01:20:25.029Z,3.90
2022-12-11T01:22:54.045Z,3.80
2022-12-11T01:25:22.112Z,4.00
2022-12-11T01:27:52.512Z,3.90
2022-12-11T01:30:22.303Z,4.00
2022-12-11T01:32:50.616Z,4.10
2022-12-11T01:35:19.722Z,4.10
2022-12-11T01:37:49.277Z,4.20
2022-12-11T01:40:19.319Z,4.00
2022-12-11T01:42:47.300Z,3.90
2022-12-11T01:45:27.600Z,3.90
2022-12-11T01:48:00.761Z,3.80
2022-12-11T01:50:29.673Z,3.70
2022-12-11T01:52:59.058Z,3.80
2022-12-11T01:55:27.470Z,3.70
2022-12-11T01:57:55.524Z,3.80
2022-12-11T02:00:23.358Z,3.70
2022-12-11T02:02:51.247Z,3.70
2022-12-11T02:05:19.086Z,3.70
2022-12-11T02:07:51.011Z,3.80
2022-12-11T02:10:20.749Z,3.90
2022-12-11T02:12:57.688Z,3.90
2022-12-11T02:15:32.084Z,4.00
2022-12-11T02:18:11.758Z,3.90
2022-12-11T02:20:43.494Z,3.90
2022-12-11T02:23:32.776Z,3.80
2022-12-11T02:26:13.476Z,3.90
2022-12-11T02:28:46.925Z,3.80
2022-12-11T02:31:23.555Z,3.90
2022-12-11T02:33:56.014Z,3.90
2022-12-11T02:36:27.688Z,3.90
2022-12-11T02:38:57.639Z,3.90
2022-12-11T02:41:27.270Z,3.90
2022-12-11T02:43:58.539Z,3.90
2022-12-11T02:46:27.222Z,3.90
2022-12-11T02:48:56.831Z,3.80
2022-12-11T02:51:28.468Z,3.80
2022-12-11T02:53:59.243Z,3.70
2022-12-11T02:56:31.968Z,3.60
2022-12-11T02:59:07.214Z,3.80
2022-12-11T03:01:35.396Z,3.80
2022-12-11T03:04:03.243Z,3.90
2022-12-11T03:06:35.696Z,3.90
2022-12-11T03:09:04.458Z,3.80
2022-12-11T03:11:32.206Z,3.80
2022-12-11T03:14:03.147Z,3.70
2022-12-11T03:16:35.739Z,3.60
2022-12-11T03:19:11.735Z,3.40
2022-12-11T03:21:45.071Z,3.30
2022-12-11T03:24:20.299Z,3.30
2022-12-11T03:26:56.646Z,3.30
2022-12-11T03:29:33.078Z,3.20
2022-12-11T03:32:05.794Z,3.20
2022-12-11T03:34:38.411Z,3.20
2022-12-11T03:37:07.203Z,3.20
2022-12-11T03:39:40.153Z,3.00
2022-12-11T03:42:11.125Z,3.20
2022-12-11T03:44:41.442Z,3.20
2022-12-11T03:47:11.317Z,3.20
2022-12-11T03:49:41.909Z,3.20
2022-12-11T03:52:11.874Z,3.20
2022-12-11T03:54:41.155Z,3.20
2022-12-11T03:57:11.374Z,3.20
2022-12-11T03:59:40.598Z,3.20
2022-12-11T04:02:11.104Z,3.20
2022-12-11T04:04:39.725Z,3.30
2022-12-11T04:07:07.749Z,3.20
2022-12-11T04:09:35.666Z,3.10
2022-12-11T04:12:03.424Z,3.10
2022-12-11T04:14:48.888Z,3.10
2022-12-11T04:17:38.540Z,3.10
2022-12-11T04:20:25.195Z,3.00
2022-12-11T04:23:11.744Z,3.10
2022-12-11T04:25:39.533Z,3.10
2022-12-11T04:28:07.332Z,3.00
2022-12-11T04:30:35.222Z,3.00
2022-12-11T04:33:04.322Z,3.00
2022-12-11T04:35:32.456Z,2.90
2022-12-11T04:38:01.246Z,2.90
2022-12-11T04:40:28.980Z,3.00
2022-12-11T04:42:56.749Z,3.00
2022-12-11T04:45:24.454Z,3.10
2022-12-11T04:47:52.401Z,3.10
2022-12-11T04:50:21.535Z,3.20
2022-12-11T04:52:49.279Z,3.30
2022-12-11T04:55:17.116Z,3.30
2022-12-11T04:57:44.884Z,3.40
2022-12-11T05:00:13.944Z,3.30
2022-12-11T05:02:42.963Z,3.20
2022-12-11T05:05:12.148Z,3.10
2022-12-11T05:07:42.072Z,3.10
2022-12-11T05:10:10.644Z,2.90
2022-12-11T05:12:38.545Z,3.00
2022-12-11T05:15:07.282Z,2.90
2022-12-11T05:17:34.999Z,3.00
2022-12-11T05:20:02.881Z,3.00
2022-12-11T05:22:31.518Z,2.80
2022-12-11T05:25:00.664Z,2.70
2022-12-11T05:27:28.602Z,2.80
2022-12-11T05:29:59.536Z,2.70
2022-12-11T05:32:27.992Z,2.70
2022-12-11T05:34:55.807Z,2.80
2022-12-11T05:37:23.616Z,2.70
2022-12-11T05:39:51.498Z,2.80
2022-12-11T05:42:25.426Z,2.80
2022-12-11T05:44:56.350Z,2.80
2022-12-11T05:47:24.103Z,2.90
2022-12-11T05:49:51.961Z,2.90
2022-12-11T05:52:19.715Z,2.80
2022-12-11T05:54:50.219Z,2.70
2022-12-11T05:57:17.961Z,2.70
2022-12-11T05:59:47.232Z,2.70
2022-12-11T06:02:15.074Z,2.80
2022-12-11T06:04:43.207Z,2.80
2022-12-11T06:07:10.930Z,2.80
2022-12-11T06:09:38.661Z,2.90
2022-12-11T06:12:06.600Z,2.80
2022-12-11T06:14:34.430Z,2.90
2022-12-11T06:17:03.687Z,2.90
2022-12-11T06:19:36.571Z,2.90
2022-12-11T06:22:04.866Z,3.10
2022-12-11T06:24:32.593Z,3.00
2022-12-11T06:27:00.339Z,3.00
2022-12-11T06:29:28.108Z,2.90
2022-12-11T06:31:55.850Z,2.90
2022-12-11T06:34:24.976Z,2.90
2022-12-11T06:36:52.757Z,2.90
2022-12-11T06:39:20.490Z,2.80
2022-12-11T06:41:48.283Z,2.90
2022-12-11T06:44:16.022Z,2.80
2022-12-11T06:46:43.731Z,2.80
2022-12-11T06:49:11.424Z,2.70
2022-12-11T06:51:40.753Z,2.80
2022-12-11T06:54:08.493Z,2.90
2022-12-11T06:56:36.439Z,2.90
2022-12-11T06:59:07.332Z,2.90
2022-12-11T07:01:35.464Z,2.90
2022-12-11T07:04:03.177Z,2.90
2022-12-11T07:06:31.133Z,3.00
2022-12-11T07:09:00.357Z,3.10
2022-12-11T07:11:28.143Z,3.10
2022-12-11T07:13:55.897Z,2.90
2022-12-11T07:16:23.694Z,2.70
2022-12-11T07:18:53.582Z,2.80
2022-12-11T07:21:22.137Z,2.60
2022-12-11T07:23:50.636Z,2.70
2022-12-11T07:26:22.081Z,2.60
2022-12-11T07:28:49.961Z,2.50
2022-12-11T07:31:20.981Z,2.50
2022-12-11T07:33:49.581Z,2.50
2022-12-11T07:36:17.363Z,2.50
2022-12-11T07:38:45.187Z,2.50
2022-12-11T07:41:14.074Z,2.40
2022-12-11T07:43:44.064Z,2.50
2022-12-11T07:46:13.717Z,2.50
2022-12-11T07:48:43.004Z,2.50
2022-12-11T07:51:12.120Z,2.50
2022-12-11T07:53:40.111Z,2.40
2022-12-11T07:56:08.430Z,2.40
2022-12-11T07:58:36.961Z,2.40
2022-12-11T08:01:06.475Z,2.40
2022-12-11T08:03:34.417Z,2.40
2022-12-11T08:06:02.295Z,2.40
2022-12-11T08:08:30.076Z,2.50
2022-12-11T08:11:01.409Z,2.50
2022-12-11T08:13:29.215Z,2.50
2022-12-11T08:15:56.965Z,2.60
2022-12-11T08:18:26.459Z,2.60
2022-12-11T08:20:54.182Z,2.60
2022-12-11T08:23:22.066Z,2.50
2022-12-11T08:25:49.787Z,2.60
2022-12-11T08:28:17.503Z,2.60
2022-12-11T08:30:45.305Z,2.60
2022-12-11T08:33:13.034Z,2.70
2022-12-11T08:35:44.044Z,2.70
2022-12-11T08:38:11.869Z,2.70
2022-12-11T08:40:39.556Z,2.80
2022-12-11T08:43:07.334Z,2.80
2022-12-11T08:45:35.604Z,2.70
2022-12-11T08:48:03.538Z,2.70
2022-12-11T08:50:31.505Z,2.70
2022-12-11T08:53:00.620Z,2.70
2022-12-11T08:55:28.523Z,2.70
2022-12-11T08:57:56.426Z,2.60
2022-12-11T09:00:24.727Z,2.60
2022-12-11T09:02:52.634Z,2.60
2022-12-11T09:05:20.520Z,2.60
2022-12-11T09:07:48.446Z,2.60
2022-12-11T09:10:17.528Z,2.60
2022-12-11T09:12:45.280Z,2.60
2022-12-11T09:15:13.400Z,2.50
2022-12-11T09:17:41.266Z,2.60
2022-12-11T09:20:09.930Z,2.70
2022-12-11T09:22:37.649Z,2.70
2022-12-11T09:25:06.051Z,2.60
2022-12-11T09:27:35.420Z,2.60
2022-12-11T09:30:03.203Z,2.70
2022-12-11T09:32:30.973Z,2.70
2022-12-11T09:34:58.732Z,2.80
2022-12-11T09:37:26.486Z,2.90
2022-12-11T09:39:54.432Z,2.90
2022-12-11T09:42:27.827Z,2.90
2022-12-11T09:45:00.287Z,2.90
2022-12-11T09:47:34.896Z,2.90
2022-12-11T09:50:08.134Z,2.90
2022-12-11T09:52:38.648Z,2.90
2022-12-11T09:55:15.740Z,2.90
2022-12-11T09:57:52.650Z,2.80
2022-12-11T10:00:28.464Z,2.80
2022-12-11T10:03:26.930Z,3.00
2022-12-11T10:06:05.031Z,2.90
2022-12-11T10:08:38.268Z,2.60
2022-12-11T10:11:21.680Z,2.70
2022-12-11T10:13:56.646Z,2.80
2022-12-11T10:16:36.929Z,2.90
2022-12-11T10:19:04.804Z,2.90
2022-12-11T10:21:40.990Z,2.80
2022-12-11T10:24:34.647Z,3.00
2022-12-11T10:27:15.837Z,3.10
2022-12-11T10:29:43.752Z,3.10
2022-12-11T10:32:21.106Z,3.30
2022-12-11T10:34:50.448Z,3.40
2022-12-11T10:37:18.217Z,3.40
2022-12-11T10:39:46.001Z,3.40
2022-12-11T10:42:20.215Z,3.40
2022-12-11T10:44:59.169Z,3.50
2022-12-11T10:47:29.831Z,3.50
2022-12-11T10:49:59.294Z,3.50
2022-12-11T10:52:31.637Z,3.50
2022-12-11T10:55:03.054Z,3.60
2022-12-11T10:57:33.445Z,3.70
2022-12-11T11:00:02.306Z,3.70
2022-12-11T11:02:33.475Z,4.00
2022-12-11T11:05:02.502Z,3.90
2022-12-11T11:07:31.540Z,4.00
2022-12-11T11:10:15.443Z,4.00
2022-12-11T11:12:45.249Z,4.00
2022-12-11T11:15:15.495Z,4.10
2022-12-11T11:17:54.577Z,4.20
2022-12-11T11:20:26.648Z,4.00
2022-12-11T11:22:57.413Z,4.00
2022-12-11T11:25:27.325Z,4.00
2022-12-11T11:27:57.310Z,4.10
2022-12-11T11:30:28.036Z,3.90
2022-12-11T11:33:02.196Z,4.20
2022-12-11T11:35:31.498Z,4.10
2022-12-11T11:38:05.271Z,4.30
2022-12-11T11:40:38.872Z,4.30
2022-12-11T11:43:17.373Z,4.20
2022-12-11T11:45:52.678Z,4.10
2022-12-11T11:48:34.132Z,4.00
2022-12-11T11:51:09.189Z,4.20
2022-12-11T11:53:41.746Z,4.10
2022-12-11T11:56:21.420Z,4.20
2022-12-11T11:58:59.197Z,4.20
2022-12-11T12:01:27.605Z,4.40
2022-12-11T12:03:57.803Z,4.60
2022-12-11T12:06:52.469Z,4.60
2022-12-11T12:09:34.059Z,4.70
2022-12-11T12:12:11.843Z,4.80
2022-12-11T12:14:53.144Z,5.00
2022-12-11T12:17:32.463Z,5.10
2022-12-11T12:20:12.149Z,5.00
2022-12-11T12:22:51.759Z,4.90
2022-12-11T12:25:25.382Z,5.00
2022-12-11T12:28:00.849Z,4.90
2022-12-11T12:30:38.588Z,4.90
2022-12-11T12:33:18.313Z,5.00
2022-12-11T12:35:55.901Z,5.20
2022-12-11T12:38:36.525Z,5.30
2022-12-11T12:41:14.035Z,5.20
2022-12-11T12:44:01.735Z,5.30
2022-12-11T12:46:43.562Z,5.20
2022-12-11T12:49:16.616Z,5.20
2022-12-11T12:51:47.159Z,5.10
2022-12-11T12:54:19.049Z,5.20
2022-12-11T12:56:47.741Z,5.30
2022-12-11T12:59:23.571Z,5.30
2022-12-11T13:01:55.292Z,5.30
2022-12-11T13:07:30.772Z,5.30
2022-12-11T13:10:02.760Z,5.20
2022-12-11T13:12:42.022Z,5.10
2022-12-11T13:15:27.185Z,4.90
2022-12-11T13:17:55.380Z,4.90
2022-12-11T13:20:25.404Z,4.80
2022-12-11T13:23:08.980Z,4.80
2022-12-11T13:25:49.514Z,4.70
2022-12-11T13:28:46.591Z,4.70
2022-12-11T13:31:33.281Z,4.80
2022-12-11T13:34:14.189Z,4.90
2022-12-11T13:36:46.910Z,5.00
2022-12-11T13:39:20.467Z,4.80
2022-12-11T13:41:53.186Z,4.70
2022-12-11T13:44:27.119Z,4.70
2022-12-11T13:46:56.996Z,4.50
2022-12-11T13:49:26.858Z,4.40
2022-12-11T13:51:57.583Z,4.20
2022-12-11T13:54:28.155Z,4.30
2022-12-11T13:56:58.487Z,4.20
2022-12-11T13:59:30.539Z,4.20
2022-12-11T14:02:02.385Z,4.20
2022-12-11T14:04:31.395Z,4.20
2022-12-11T14:06:59.939Z,4.50
2022-12-11T14:09:29.824Z,4.60
2022-12-11T14:11:59.298Z,4.50
2022-12-11T14:14:37.751Z,4.50
2022-12-11T14:17:05.917Z,4.50
2022-12-11T14:19:34.405Z,4.60
2022-12-11T14:22:03.353Z,4.80
2022-12-11T14:24:32.960Z,4.90
2022-12-11T14:27:01.289Z,4.70
2022-12-11T14:29:31.238Z,4.20
2022-12-11T14:32:03.854Z,4.10
2022-12-11T14:34:35.561Z,4.10
2022-12-11T14:37:07.121Z,3.90
2022-12-11T14:39:39.523Z,3.90
2022-12-11T14:42:11.672Z,3.80
2022-12-11T14:44:50.333Z,3.80
2022-12-11T14:47:22.272Z,3.80
2022-12-11T14:49:54.287Z,3.80
2022-12-11T14:52:26.761Z,3.80
2022-12-11T14:55:02.718Z,3.70
2022-12-11T14:57:33.255Z,3.70
2022-12-11T15:00:01.761Z,3.70
2022-12-11T15:02:33.236Z,3.60
2022-12-11T15:05:06.293Z,3.50
2022-12-11T15:07:34.923Z,3.50
2022-12-11T15:10:05.126Z,3.70
2022-12-11T15:12:33.031Z,4.00
2022-12-11T15:15:03.734Z,4.20
2022-12-11T15:17:32.972Z,4.30
2022-12-11T15:20:07.256Z,4.20
2022-12-11T15:22:36.262Z,4.30
2022-12-11T15:25:06.278Z,4.50
2022-12-11T15:27:36.747Z,4.50
2022-12-11T15:30:17.717Z,4.60
2022-12-11T15:32:45.553Z,4.70
2022-12-11T15:35:24.105Z,4.60
2022-12-11T15:37:54.380Z,4.60
2022-12-11T15:40:23.903Z,4.70
2022-12-11T15:42:54.791Z,4.70
2022-12-11T15:45:24.494Z,4.70
2022-12-11T15:47:53.362Z,4.60
2022-12-11T15:50:22.994Z,4.50
2022-12-11T15:52:52.674Z,4.40
2022-12-11T15:55:22.264Z,4.50
2022-12-11T15:57:54.258Z,4.60
2022-12-11T16:00:23.935Z,4.70
2022-12-11T16:02:52.562Z,4.80
2022-12-11T16:05:20.609Z,4.80
2022-12-11T16:07:48.920Z,4.80
2022-12-11T16:10:18.742Z,4.80
2022-12-11T16:12:46.810Z,4.40
2022-12-11T16:15:23.116Z,4.50
2022-12-11T16:17:51.509Z,4.50
2022-12-11T16:20:19.457Z,4.60
2022-12-11T16:22:47.197Z,4.50
2022-12-11T16:25:15.134Z,4.40
2022-12-11T16:27:42.903Z,4.40
2022-12-11T16:30:11.698Z,4.20
2022-12-11T16:32:40.792Z,4.20
2022-12-11T16:35:09.218Z,4.20
2022-12-11T16:37:38.230Z,4.20
2022-12-11T16:40:08.173Z,4.10
2022-12-11T16:42:36.441Z,4.10
2022-12-11T16:45:06.788Z,4.10
2022-12-11T16:47:34.539Z,4.00
2022-12-11T16:50:03.626Z,4.00
2022-12-11T16:52:33.159Z,4.00
2022-12-11T16:55:01.239Z,3.80
2022-12-11T16:57:29.167Z,3.60
2022-12-11T16:59:56.885Z,3.60
2022-12-11T17:02:24.695Z,3.60
2022-12-11T17:04:54.152Z,3.60
2022-12-11T17:07:23.509Z,3.60
2022-12-11T17:09:51.675Z,3.60
2022-12-11T17:12:23.106Z,3.50
2022-12-11T17:14:51.163Z,3.50
2022-12-11T17:17:18.928Z,3.50
2022-12-11T17:19:46.923Z,3.60
2022-12-11T17:22:15.256Z,3.50
2022-12-11T17:24:44.385Z,3.50
2022-12-11T17:27:12.186Z,3.40
2022-12-11T17:29:40.013Z,3.40
2022-12-11T17:32:07.969Z,3.40
2022-12-11T17:34:38.450Z,3.50
2022-12-11T17:37:06.876Z,3.40
2022-12-11T17:39:34.724Z,3.40
2022-12-11T17:42:03.998Z,3.30
2022-12-11T17:44:31.844Z,3.10
2022-12-11T17:47:00.148Z,3.10
2022-12-11T17:49:27.910Z,3.10
2022-12-11T17:51:55.802Z,3.10
2022-12-11T17:54:24.063Z,3.20
2022-12-11T17:56:52.297Z,3.10
2022-12-11T17:59:21.446Z,3.20
2022-12-11T18:01:49.526Z,3.10
2022-12-11T18:04:17.293Z,2.90
2022-12-11T18:06:45.064Z,2.90
2022-12-11T18:09:12.998Z,2.80
2022-12-11T18:11:40.672Z,2.90
2022-12-11T18:14:11.155Z,3.00
2022-12-11T18:16:44.470Z,3.00
2022-12-11T18:19:12.302Z,3.10
2022-12-11T18:21:42.761Z,3.00
2022-12-11T18:24:10.839Z,3.10
2022-12-11T18:26:38.661Z,3.20
2022-12-11T18:29:07.313Z,3.00
2022-12-11T18:31:40.505Z,3.00
2022-12-11T18:34:12.095Z,3.00
2022-12-11T18:36:40.634Z,3.20
2022-12-11T18:39:08.484Z,3.30
2022-12-11T18:41:36.372Z,3.20
2022-12-11T18:44:09.445Z,3.10
2022-12-11T18:46:39.382Z,3.10
2022-12-11T18:49:07.613Z,3.20
2022-12-11T18:51:37.273Z,3.10
2022-12-11T18:54:05.243Z,3.00
2022-12-11T18:56:33.049Z,3.00
2022-12-11T18:59:00.871Z,3.10
2022-12-11T19:01:30.568Z,2.90
2022-12-11T19:04:05.318Z,2.90
2022-12-11T19:06:37.119Z,2.90
2022-12-11T19:09:07.227Z,2.90
2022-12-11T19:11:36.964Z,2.90
2022-12-11T19:14:06.384Z,2.80
2022-12-11T19:16:36.217Z,2.70
2022-12-11T19:19:06.771Z,2.70
2022-12-11T19:21:37.576Z,2.60
2022-12-11T19:24:06.554Z,2.50
2022-12-11T19:26:35.145Z,2.50
2022-12-11T19:29:02.943Z,2.50
2022-12-11T19:31:32.143Z,2.50
2022-12-11T19:34:00.740Z,2.50
2022-12-11T19:36:30.605Z,2.40
2022-12-11T19:39:02.285Z,2.30
2022-12-11T19:41:32.022Z,2.30
2022-12-11T19:44:00.595Z,2.30
2022-12-11T19:46:29.391Z,2.20
2022-12-11T19:48:58.351Z,2.00
2022-12-11T19:51:28.490Z,1.90
2022-12-11T19:53:57.193Z,2.00
2022-12-11T19:56:26.305Z,2.00
2022-12-11T19:58:54.090Z,1.90
2022-12-11T20:01:25.701Z,1.90
2022-12-11T20:03:54.350Z,1.80
2022-12-11T20:06:22.751Z,1.90
2022-12-11T20:08:50.873Z,1.90
2022-12-11T20:11:21.846Z,1.80
2022-12-11T20:13:51.615Z,1.80
2022-12-11T20:16:33.704Z,1.80
2022-12-11T20:19:07.226Z,1.80
2022-12-11T20:21:35.367Z,1.70
2022-12-11T20:24:03.122Z,1.80
2022-12-11T20:26:32.504Z,1.70
2022-12-11T20:29:05.039Z,1.50
2022-12-11T20:31:33.103Z,1.60
2022-12-11T20:34:01.017Z,1.70
2022-12-11T20:36:29.336Z,1.90
2022-12-11T20:38:57.090Z,2.00
2022-12-11T20:41:26.303Z,1.70
2022-12-11T20:43:54.416Z,1.70
2022-12-11T20:46:25.225Z,1.70
2022-12-11T20:48:53.866Z,1.60
2022-12-11T20:51:26.266Z,1.60
2022-12-11T20:53:58.484Z,1.50
2022-12-11T20:56:28.879Z,1.50
2022-12-11T20:58:57.159Z,1.60
2022-12-11T21:01:28.225Z,1.50
2022-12-11T21:03:56.329Z,1.50
2022-12-11T21:06:26.489Z,1.50
2022-12-11T21:08:54.988Z,1.50
2022-12-11T21:11:23.108Z,1.50
2022-12-11T21:13:53.561Z,1.40
2022-12-11T21:16:22.460Z,1.40
2022-12-11T21:18:52.121Z,1.40
2022-12-11T21:21:19.870Z,1.30
2022-12-11T21:23:47.644Z,1.30
2022-12-11T21:26:15.516Z,1.30
2022-12-11T21:28:43.492Z,1.20
2022-12-11T21:31:15.382Z,1.30
2022-12-11T21:33:43.548Z,1.30
2022-12-11T21:36:14.516Z,1.20
2022-12-11T21:38:43.941Z,1.20
2022-12-11T21:41:14.312Z,1.10
2022-12-11T21:44:03.272Z,1.00
2022-12-11T21:46:30.595Z,1.10
2022-12-11T21:48:58.599Z,1.10
2022-12-11T21:51:35.960Z,1.10
2022-12-11T21:54:07.104Z,1.20
2022-12-11T21:56:35.260Z,1.20
2022-12-11T21:59:03.195Z,1.10
2022-12-11T22:01:33.479Z,1.10
2022-12-11T22:04:02.364Z,1.00
2022-12-11T22:06:31.465Z,0.90
2022-12-11T22:08:59.183Z,0.80
2022-12-11T22:11:29.374Z,0.80
2022-12-11T22:13:57.732Z,0.80
2022-12-11T22:16:25.465Z,0.80
2022-12-11T22:18:53.344Z,0.70
2022-12-11T22:21:21.663Z,0.70
2022-12-11T22:23:51.186Z,0.60
2022-12-11T22:26:22.119Z,0.60
2022-12-11T22:28:50.324Z,0.50
2022-12-11T22:31:21.308Z,0.60
2022-12-11T22:33:49.699Z,0.50
2022-12-11T22:36:18.493Z,0.40
2022-12-11T22:38:46.311Z,0.40
2022-12-11T22:41:22.180Z,0.30
2022-12-11T22:43:53.943Z,0.30
2022-12-11T22:46:24.117Z,0.30
2022-12-11T22:48:52.450Z,0.30
2022-12-11T22:51:20.736Z,0.30
2022-12-11T22:53:48.918Z,0.10
2022-12-11T22:56:18.161Z,0.00
2022-12-11T22:58:45.914Z,0.00
2022-12-11T23:01:16.970Z,0.00
2022-12-11T23:03:45.044Z,0.10
2022-12-11T23:06:15.260Z,0.00
2022-12-11T23:08:43.889Z,0.10
2022-12-11T23:11:13.255Z,0.10
2022-12-11T23:13:42.729Z,0.20
2022-12-11T23:16:11.150Z,0.20
2022-12-11T23:18:39.376Z,0.10
2022-12-11T23:21:08.468Z,0.10
2022-12-11T23:23:36.188Z,0.10
2022-12-11T23:26:04.421Z,0.10
2022-12-11T23:28:32.170Z,0.00
2022-12-11T23:31:01.309Z,0.10
2022-12-11T23:33:29.109Z,0.10
2022-12-11T23:35:59.172Z,0.10
2022-12-11T23:38:27.173Z,0.10
2022-12-11T23:40:55.211Z,0.00
2022-12-11T23:43:22.944Z,0.10
2022-12-11T23:45:51.248Z,0.00
2022-12-11T23:48:20.453Z,-0.10
2022-12-11T23:50:49.133Z,-0.20
2022-12-11T23:53:17.004Z,-0.10
2022-12-11T23:55:46.284Z,0.10
2022-12-11T23:58:14.013Z,0.20
